createdAt,value
2022-10-12T00:00:43.446Z,49.48
2022-10-12T00:03:13.305Z,49.59
2022-10-12T00:05:41.414Z,49.67
2022-10-12T00:08:09.368Z,49.50
2022-10-12T00:10:41.394Z,49.69
2022-10-12T00:13:10.793Z,49.35
2022-10-12T00:15:39.268Z,49.45
2022-10-12T00:18:07.470Z,49.22
2022-10-12T00:20:35.426Z,49.43
2022-10-12T00:23:03.337Z,49.57
2022-10-12T00:25:31.353Z,49.51
2022-10-12T00:27:59.313Z,49.40
2022-10-12T00:30:28.796Z,49.40
2022-10-12T00:32:56.747Z,49.46
2022-10-12T00:35:24.688Z,49.45
2022-10-12T00:37:54.930Z,49.65
2022-10-12T00:40:22.879Z,49.58
2022-10-12T00:42:50.816Z,49.64
2022-10-12T00:45:19.227Z,49.38
2022-10-12T00:47:50.416Z,49.59
2022-10-12T00:50:20.765Z,49.26
2022-10-12T00:52:51.395Z,49.60
2022-10-12T00:55:20.354Z,49.56
2022-10-12T00:57:48.534Z,49.54
2022-10-12T01:00:19.177Z,49.46
2022-10-12T01:02:47.107Z,49.77
2022-10-12T01:05:16.498Z,49.53
2022-10-12T01:07:44.573Z,49.94
2022-10-12T01:10:12.614Z,49.49
2022-10-12T01:12:41.620Z,49.79
2022-10-12T01:15:10.264Z,49.92
2022-10-12T01:17:41.211Z,49.87
2022-10-12T01:20:27.250Z,49.63
2022-10-12T01:23:02.585Z,49.53
2022-10-12T01:25:35.767Z,49.58
2022-10-12T01:28:04.887Z,49.76
2022-10-12T01:30:34.347Z,49.51
2022-10-12T01:33:12.431Z,49.74
2022-10-12T01:35:45.509Z,49.52
2022-10-12T01:38:19.706Z,49.90
2022-10-12T01:40:49.694Z,49.85
2022-10-12T01:43:18.509Z,49.86
2022-10-12T01:45:47.913Z,49.70
2022-10-12T01:48:15.869Z,49.40
2022-10-12T01:50:50.856Z,49.71
2022-10-12T01:53:30.076Z,49.54
2022-10-12T01:55:59.301Z,49.92
2022-10-12T01:58:37.526Z,49.64
2022-10-12T02:01:10.292Z,49.76
2022-10-12T02:03:41.329Z,49.80
2022-10-12T02:06:10.693Z,49.53
2022-10-12T02:08:41.558Z,49.79
2022-10-12T02:11:10.470Z,49.72
2022-10-12T02:13:41.171Z,49.77
2022-10-12T02:16:12.954Z,49.69
2022-10-12T02:18:43.002Z,49.84
2022-10-12T02:21:10.956Z,49.41
2022-10-12T02:23:39.044Z,49.77
2022-10-12T02:26:07.986Z,49.39
2022-10-12T02:28:36.197Z,49.40
2022-10-12T02:31:08.581Z,49.56
2022-10-12T02:33:40.338Z,49.55
2022-10-12T02:36:11.018Z,49.41
2022-10-12T02:38:40.471Z,49.35
2022-10-12T02:41:10.748Z,49.30
2022-10-12T02:43:39.507Z,49.21
2022-10-12T02:46:09.598Z,49.08
2022-10-12T02:48:40.137Z,49.08
2022-10-12T02:51:08.457Z,49.45
2022-10-12T02:53:36.426Z,49.26
2022-10-12T02:56:05.483Z,49.17
2022-10-12T02:58:33.465Z,49.21
2022-10-12T03:01:01.432Z,49.37
2022-10-12T03:03:29.476Z,49.28
2022-10-12T03:05:58.925Z,49.10
2022-10-12T03:08:26.851Z,48.89
2022-10-12T03:10:54.763Z,48.97
2022-10-12T03:13:22.678Z,49.16
2022-10-12T03:15:50.707Z,48.99
2022-10-12T03:18:19.078Z,49.06
2022-10-12T03:20:49.192Z,48.99
2022-10-12T03:23:18.472Z,48.86
2022-10-12T03:25:46.496Z,48.86
2022-10-12T03:28:14.515Z,48.89
2022-10-12T03:30:42.632Z,48.83
2022-10-12T03:33:10.624Z,48.91
2022-10-12T03:35:38.595Z,48.98
2022-10-12T03:38:06.552Z,48.77
2022-10-12T03:40:36.761Z,48.97
2022-10-12T03:43:04.705Z,48.79
2022-10-12T03:45:32.666Z,49.05
2022-10-12T03:48:04.643Z,48.91
2022-10-12T03:50:33.688Z,48.70
2022-10-12T03:53:01.694Z,48.69
2022-10-12T03:55:29.676Z,48.78
2022-10-12T03:57:58.988Z,48.88
2022-10-12T04:00:28.123Z,48.83
2022-10-12T04:02:56.076Z,48.70
2022-10-12T04:05:24.037Z,48.71
2022-10-12T04:07:51.972Z,48.57
2022-10-12T04:10:20.023Z,49.00
2022-10-12T04:12:48.030Z,48.66
2022-10-12T04:15:18.245Z,48.88
2022-10-12T04:17:46.232Z,48.88
2022-10-12T04:20:14.152Z,49.11
2022-10-12T04:22:42.095Z,48.57
2022-10-12T04:25:11.517Z,48.56
2022-10-12T04:27:39.859Z,48.68
2022-10-12T04:30:09.328Z,48.69
2022-10-12T04:32:38.632Z,48.64
2022-10-12T04:35:06.818Z,48.66
2022-10-12T04:37:34.793Z,48.81
2022-10-12T04:40:03.261Z,48.90
2022-10-12T04:42:31.201Z,48.96
2022-10-12T04:44:59.133Z,48.81
2022-10-12T04:47:27.376Z,48.70
2022-10-12T04:49:56.760Z,48.82
2022-10-12T04:52:24.695Z,48.82
2022-10-12T04:54:52.676Z,48.87
2022-10-12T04:57:20.697Z,48.87
2022-10-12T04:59:48.668Z,48.76
2022-10-12T05:02:16.604Z,48.76
2022-10-12T05:04:44.525Z,48.72
2022-10-12T05:07:14.051Z,48.61
2022-10-12T05:09:42.123Z,48.56
2022-10-12T05:12:10.034Z,48.58
2022-10-12T05:14:38.688Z,48.69
2022-10-12T05:17:06.967Z,48.63
2022-10-12T05:19:34.886Z,48.63
2022-10-12T05:22:03.234Z,48.73
2022-10-12T05:24:32.676Z,48.71
2022-10-12T05:27:00.715Z,48.67
2022-10-12T05:29:28.688Z,48.37
2022-10-12T05:31:56.667Z,48.66
2022-10-12T05:34:24.646Z,48.44
2022-10-12T05:36:52.605Z,48.62
2022-10-12T05:39:20.534Z,49.02
2022-10-12T05:41:49.865Z,48.85
2022-10-12T05:44:17.837Z,48.90
2022-10-12T05:46:45.783Z,48.97
2022-10-12T05:49:13.711Z,48.80
2022-10-12T05:51:41.744Z,48.92
2022-10-12T05:54:09.770Z,48.77
2022-10-12T05:56:37.904Z,48.90
2022-10-12T05:59:08.610Z,49.17
2022-10-12T06:01:36.932Z,48.95
2022-10-12T06:04:05.105Z,49.22
2022-10-12T06:06:33.162Z,49.18
2022-10-12T06:09:01.157Z,49.00
2022-10-12T06:11:31.502Z,49.03
2022-10-12T06:14:02.014Z,49.47
2022-10-12T06:16:31.316Z,49.45
2022-10-12T06:18:59.288Z,49.49
2022-10-12T06:21:34.872Z,49.41
2022-10-12T06:24:03.098Z,49.72
2022-10-12T06:26:31.103Z,49.62
2022-10-12T06:29:00.788Z,49.43
2022-10-12T06:31:29.226Z,49.43
2022-10-12T06:33:58.586Z,49.52
2022-10-12T06:36:26.575Z,49.75
2022-10-12T06:38:54.525Z,49.78
2022-10-12T06:41:22.657Z,49.66
2022-10-12T06:43:50.659Z,49.39
2022-10-12T06:46:18.679Z,49.59
2022-10-12T06:48:46.591Z,49.66
2022-10-12T06:51:15.955Z,49.79
2022-10-12T06:53:44.377Z,49.63
2022-10-12T06:56:13.152Z,49.50
2022-10-12T06:58:41.089Z,49.66
2022-10-12T07:01:11.776Z,49.91
2022-10-12T07:03:39.790Z,49.67
2022-10-12T07:06:09.428Z,49.69
2022-10-12T07:08:39.096Z,49.76
2022-10-12T07:11:07.790Z,50.01
2022-10-12T07:13:35.793Z,50.02
2022-10-12T07:16:03.709Z,49.77
2022-10-12T07:18:31.666Z,49.77
2022-10-12T07:20:59.883Z,49.94
2022-10-12T07:23:27.858Z,50.40
2022-10-12T07:25:57.246Z,50.19
2022-10-12T07:28:28.161Z,50.27
2022-10-12T07:30:56.085Z,50.11
2022-10-12T07:33:23.965Z,50.13
2022-10-12T07:36:14.428Z,50.05
2022-10-12T07:38:45.148Z,49.93
2022-10-12T07:41:15.012Z,50.26
2022-10-12T07:43:43.158Z,49.97
2022-10-12T07:46:11.154Z,50.05
2022-10-12T07:48:41.208Z,49.98
2022-10-12T07:51:11.190Z,50.02
2022-10-12T07:53:39.627Z,50.00
2022-10-12T07:56:14.785Z,49.88
2022-10-12T07:58:44.496Z,50.21
2022-10-12T08:01:12.755Z,50.15
2022-10-12T08:03:40.908Z,50.31
2022-10-12T08:06:12.008Z,50.25
2022-10-12T08:08:39.991Z,50.10
2022-10-12T08:11:08.510Z,50.24
2022-10-12T08:13:36.941Z,50.01
2022-10-12T08:16:07.157Z,49.98
2022-10-12T08:18:35.217Z,49.83
2022-10-12T08:21:05.356Z,49.93
2022-10-12T08:23:33.476Z,50.13
2022-10-12T08:26:01.516Z,50.02
2022-10-12T08:28:29.616Z,49.83
2022-10-12T08:30:57.677Z,50.01
2022-10-12T08:33:29.721Z,49.77
2022-10-12T08:35:57.653Z,49.51
2022-10-12T08:38:25.620Z,49.61
2022-10-12T08:40:55.118Z,49.83
2022-10-12T08:43:26.991Z,49.40
2022-10-12T08:45:55.862Z,49.42
2022-10-12T08:48:27.133Z,49.37
2022-10-12T08:53:26.945Z,49.56
2022-10-12T08:55:56.507Z,49.27
2022-10-12T08:58:25.935Z,49.41
2022-10-12T09:00:54.797Z,49.06
2022-10-12T09:03:34.955Z,49.23
2022-10-12T09:06:06.823Z,49.25
2022-10-12T09:08:40.335Z,49.41
2022-10-12T09:11:21.703Z,49.06
2022-10-12T09:13:53.722Z,49.17
2022-10-12T09:16:23.036Z,49.36
2022-10-12T09:18:53.709Z,49.22
2022-10-12T09:21:23.138Z,49.14
2022-10-12T09:23:51.112Z,49.06
2022-10-12T09:26:19.883Z,49.12
2022-10-12T09:28:49.365Z,49.05
2022-10-12T09:31:28.625Z,49.10
2022-10-12T09:33:58.843Z,48.85
2022-10-12T09:36:28.120Z,48.92
2022-10-12T09:38:56.118Z,49.05
2022-10-12T09:41:25.300Z,49.13
2022-10-12T09:43:56.372Z,49.16
2022-10-12T09:46:27.988Z,48.71
2022-10-12T09:49:00.820Z,48.81
2022-10-12T09:51:29.284Z,48.58
2022-10-12T09:53:59.172Z,48.69
2022-10-12T09:56:29.768Z,48.42
2022-10-12T09:58:59.284Z,48.71
2022-10-12T10:01:27.783Z,48.58
2022-10-12T10:04:15.084Z,48.47
2022-10-12T10:06:44.374Z,48.82
2022-10-12T10:09:32.546Z,48.66
2022-10-12T10:12:13.149Z,48.47
2022-10-12T10:14:44.250Z,48.48
2022-10-12T10:17:16.140Z,48.66
2022-10-12T10:19:51.872Z,48.14
2022-10-12T10:22:20.009Z,48.33
2022-10-12T10:24:52.236Z,48.09
2022-10-12T10:27:37.045Z,48.00
2022-10-12T10:30:30.775Z,48.21
2022-10-12T10:33:10.215Z,48.00
2022-10-12T10:35:39.783Z,47.64
2022-10-12T10:38:09.292Z,47.66
2022-10-12T10:40:37.270Z,47.43
2022-10-12T10:43:06.326Z,47.53
2022-10-12T10:45:35.573Z,47.52
2022-10-12T10:48:08.302Z,47.74
2022-10-12T10:50:37.872Z,47.53
2022-10-12T10:53:09.047Z,47.39
2022-10-12T10:55:44.240Z,47.54
2022-10-12T10:58:21.880Z,47.72
2022-10-12T11:00:49.944Z,47.75
2022-10-12T11:03:21.965Z,47.68
2022-10-12T11:05:51.120Z,47.52
2022-10-12T11:08:22.508Z,47.50
2022-10-12T11:10:51.890Z,47.66
2022-10-12T11:13:24.056Z,47.49
2022-10-12T11:15:53.576Z,47.51
2022-10-12T11:18:24.872Z,47.76
2022-10-12T11:20:54.419Z,47.57
2022-10-12T11:23:29.906Z,47.52
2022-10-12T11:26:07.845Z,47.66
2022-10-12T11:28:35.880Z,47.70
2022-10-12T11:31:03.914Z,47.80
2022-10-12T11:33:38.092Z,47.53
2022-10-12T11:36:07.865Z,47.64
2022-10-12T11:38:39.859Z,47.75
2022-10-12T11:41:33.983Z,47.43
2022-10-12T11:43:59.088Z,47.42
2022-10-12T11:46:31.891Z,47.60
2022-10-12T11:49:02.358Z,47.59
2022-10-12T11:51:30.252Z,47.57
2022-10-12T11:54:01.347Z,47.32
2022-10-12T11:56:30.658Z,47.34
2022-10-12T11:59:13.310Z,47.29
2022-10-12T12:01:48.413Z,47.25
2022-10-12T12:04:47.948Z,47.43
2022-10-12T12:07:42.335Z,47.05
2022-10-12T12:10:50.728Z,47.14
2022-10-12T12:13:23.072Z,47.31
2022-10-12T12:16:24.464Z,47.14
2022-10-12T12:19:25.510Z,47.13
2022-10-12T12:22:23.617Z,46.90
2022-10-12T12:25:16.840Z,47.07
2022-10-12T12:27:47.878Z,46.92
2022-10-12T12:30:33.766Z,47.11
2022-10-12T12:33:02.484Z,46.71
2022-10-12T12:35:33.185Z,46.71
2022-10-12T12:38:09.722Z,46.80
2022-10-12T12:40:38.422Z,47.06
2022-10-12T12:43:56.368Z,46.75
2022-10-12T12:46:25.736Z,47.08
2022-10-12T12:49:00.753Z,46.58
2022-10-12T12:51:36.412Z,46.90
2022-10-12T12:54:05.835Z,46.96
2022-10-12T12:56:37.179Z,46.59
2022-10-12T12:59:20.065Z,46.58
2022-10-12T13:02:01.485Z,46.87
2022-10-12T13:04:44.195Z,46.54
2022-10-12T13:07:32.116Z,46.71
2022-10-12T13:10:19.576Z,46.69
2022-10-12T13:13:13.743Z,46.62
2022-10-12T13:15:57.780Z,46.69
2022-10-12T13:18:50.993Z,46.77
2022-10-12T13:21:21.060Z,46.75
2022-10-12T13:23:50.343Z,46.75
2022-10-12T13:26:20.178Z,46.57
2022-10-12T13:28:48.263Z,46.39
2022-10-12T13:31:19.928Z,46.81
2022-10-12T13:33:52.981Z,46.70
2022-10-12T13:36:22.517Z,46.92
2022-10-12T13:38:59.067Z,46.76
2022-10-12T13:41:27.488Z,46.64
2022-10-12T13:43:55.879Z,46.48
2022-10-12T13:46:39.660Z,46.62
2022-10-12T13:49:14.998Z,46.38
2022-10-12T13:51:43.201Z,46.72
2022-10-12T13:54:19.882Z,46.77
2022-10-12T13:56:48.052Z,46.65
2022-10-12T13:59:19.397Z,46.46
2022-10-12T14:01:56.822Z,46.38
2022-10-12T14:04:28.016Z,46.72
2022-10-12T14:06:58.488Z,46.65
2022-10-12T14:09:27.316Z,46.45
2022-10-12T14:11:56.096Z,46.43
2022-10-12T14:14:30.460Z,46.74
2022-10-12T14:16:59.850Z,47.23
2022-10-12T14:19:37.535Z,47.27
2022-10-12T14:22:05.491Z,47.13
2022-10-12T14:24:34.083Z,47.11
2022-10-12T14:27:02.713Z,46.90
2022-10-12T14:29:35.319Z,46.98
2022-10-12T14:32:06.740Z,47.03
2022-10-12T14:34:48.333Z,47.46
2022-10-12T14:37:41.699Z,47.74
2022-10-12T14:40:34.207Z,48.19
2022-10-12T14:43:04.818Z,47.77
2022-10-12T14:45:33.816Z,48.24
2022-10-12T14:48:03.338Z,48.72
2022-10-12T14:50:32.643Z,47.80
2022-10-12T14:53:03.253Z,47.69
2022-10-12T14:55:32.647Z,47.59
2022-10-12T14:58:00.900Z,47.35
2022-10-12T15:00:32.062Z,47.13
2022-10-12T15:02:59.983Z,47.41
2022-10-12T15:05:32.534Z,47.29
2022-10-12T15:08:00.596Z,46.98
2022-10-12T15:10:30.614Z,47.19
2022-10-12T15:12:58.538Z,46.96
2022-10-12T15:15:31.233Z,46.82
2022-10-12T15:17:59.367Z,47.02
2022-10-12T15:20:28.173Z,47.04
2022-10-12T15:22:57.545Z,47.09
2022-10-12T15:25:27.759Z,46.85
2022-10-12T15:27:55.841Z,46.79
2022-10-12T15:30:24.461Z,47.05
2022-10-12T15:32:52.656Z,46.81
2022-10-12T15:35:23.043Z,46.99
2022-10-12T15:37:51.084Z,46.84
2022-10-12T15:40:22.332Z,46.84
2022-10-12T15:42:50.275Z,48.56
2022-10-12T15:45:21.273Z,49.60
2022-10-12T15:47:49.277Z,49.13
2022-10-12T15:50:17.798Z,48.55
2022-10-12T15:52:46.549Z,48.72
2022-10-12T15:55:20.123Z,48.18
2022-10-12T15:57:50.344Z,47.69
2022-10-12T16:00:19.066Z,47.85
2022-10-12T16:02:47.817Z,47.57
2022-10-12T16:05:18.317Z,47.75
2022-10-12T16:07:47.023Z,47.61
2022-10-12T16:10:15.459Z,47.66
2022-10-12T16:12:45.230Z,47.50
2022-10-12T16:15:15.490Z,47.81
2022-10-12T16:17:45.100Z,47.44
2022-10-12T16:20:13.416Z,47.46
2022-10-12T16:22:42.054Z,47.56
2022-10-12T16:25:11.385Z,47.58
2022-10-12T16:27:40.067Z,47.74
2022-10-12T16:30:08.948Z,47.47
2022-10-12T16:32:38.990Z,47.58
2022-10-12T16:35:07.735Z,47.64
2022-10-12T16:37:36.906Z,47.69
2022-10-12T16:40:06.064Z,47.31
2022-10-12T16:42:34.771Z,47.44
2022-10-12T16:45:02.823Z,47.53
2022-10-12T16:47:32.198Z,47.23
2022-10-12T16:50:01.497Z,47.20
2022-10-12T16:52:30.203Z,47.39
2022-10-12T16:54:58.915Z,47.49
2022-10-12T16:57:28.191Z,47.47
2022-10-12T16:59:56.137Z,47.34
2022-10-12T17:02:25.206Z,47.46
2022-10-12T17:04:53.148Z,47.24
2022-10-12T17:07:23.207Z,47.29
2022-10-12T17:09:51.610Z,47.52
2022-10-12T17:12:21.149Z,47.36
2022-10-12T17:14:49.089Z,47.34
2022-10-12T17:17:17.785Z,47.37
2022-10-12T17:19:45.783Z,47.58
2022-10-12T17:22:15.215Z,47.44
2022-10-12T17:24:47.638Z,47.46
2022-10-12T17:27:17.742Z,47.50
2022-10-12T17:29:45.989Z,47.35
2022-10-12T17:32:15.366Z,47.47
2022-10-12T17:34:44.586Z,47.67
2022-10-12T17:37:13.328Z,47.56
2022-10-12T17:39:42.643Z,47.50
2022-10-12T17:42:12.835Z,47.45
2022-10-12T17:44:40.866Z,47.26
2022-10-12T17:47:11.249Z,47.61
2022-10-12T17:49:39.215Z,47.36
2022-10-12T17:52:07.902Z,47.56
2022-10-12T17:54:36.694Z,47.62
2022-10-12T17:57:05.485Z,47.52
2022-10-12T17:59:34.934Z,47.56
2022-10-12T18:02:05.998Z,47.24
2022-10-12T18:04:37.270Z,47.43
2022-10-12T18:07:06.013Z,47.55
2022-10-12T18:09:34.088Z,47.72
2022-10-12T18:12:02.985Z,47.43
2022-10-12T18:14:30.919Z,47.73
2022-10-12T18:17:02.248Z,47.62
2022-10-12T18:19:30.205Z,47.76
2022-10-12T18:21:58.178Z,47.59
2022-10-12T18:24:26.815Z,47.56
2022-10-12T18:26:54.767Z,47.48
2022-10-12T18:29:23.535Z,47.55
2022-10-12T18:31:51.496Z,47.47
2022-10-12T18:34:22.035Z,47.52
2022-10-12T18:36:50.049Z,47.91
2022-10-12T18:39:18.755Z,47.69
2022-10-12T18:41:46.781Z,47.74
2022-10-12T18:44:15.890Z,47.63
2022-10-12T18:46:43.851Z,47.36
2022-10-12T18:49:13.233Z,47.54
2022-10-12T18:51:43.538Z,47.38
2022-10-12T18:54:14.029Z,47.31
2022-10-12T18:56:43.051Z,47.65
2022-10-12T18:59:12.988Z,47.52
2022-10-12T19:01:40.940Z,47.79
2022-10-12T19:04:09.689Z,47.71
2022-10-12T19:06:38.666Z,47.46
2022-10-12T19:09:08.905Z,47.39
2022-10-12T19:11:37.333Z,47.81
2022-10-12T19:14:08.248Z,47.56
2022-10-12T19:16:36.351Z,47.83
2022-10-12T19:19:14.869Z,47.83
2022-10-12T19:21:47.068Z,47.59
2022-10-12T19:24:20.331Z,47.83
2022-10-12T19:26:48.503Z,47.58
2022-10-12T19:29:17.308Z,47.84
2022-10-12T19:31:46.022Z,47.54
2022-10-12T19:34:15.550Z,47.85
2022-10-12T19:36:43.764Z,47.83
2022-10-12T19:39:15.310Z,47.67
2022-10-12T19:41:44.723Z,47.69
2022-10-12T19:44:14.261Z,47.74
2022-10-12T19:46:42.759Z,48.11
2022-10-12T19:49:16.336Z,48.10
2022-10-12T19:51:44.757Z,47.85
2022-10-12T19:54:15.328Z,48.05
2022-10-12T19:56:44.859Z,48.03
2022-10-12T19:59:14.075Z,48.05
2022-10-12T20:01:42.343Z,47.88
2022-10-12T20:04:12.735Z,48.08
2022-10-12T20:06:40.760Z,48.14
2022-10-12T20:09:13.337Z,47.95
2022-10-12T20:11:41.311Z,47.95
2022-10-12T20:14:11.812Z,48.00
2022-10-12T20:16:39.735Z,47.97
2022-10-12T20:19:09.339Z,48.00
2022-10-12T20:21:37.639Z,48.21
2022-10-12T20:24:07.074Z,48.01
2022-10-12T20:26:34.950Z,48.22
2022-10-12T20:29:04.004Z,48.10
2022-10-12T20:31:33.326Z,48.10
2022-10-12T20:34:02.022Z,48.16
2022-10-12T20:36:30.648Z,48.28
2022-10-12T20:39:00.400Z,48.38
2022-10-12T20:41:28.707Z,48.34
2022-10-12T20:43:57.270Z,48.19
2022-10-12T20:46:26.094Z,48.50
2022-10-12T20:48:58.759Z,48.58
2022-10-12T20:51:29.432Z,48.09
2022-10-12T20:53:59.304Z,48.18
2022-10-12T20:56:28.288Z,48.60
2022-10-12T20:58:56.262Z,48.37
2022-10-12T21:01:25.087Z,48.23
2022-10-12T21:03:53.297Z,48.39
2022-10-12T21:06:24.214Z,48.49
2022-10-12T21:08:52.368Z,48.24
2022-10-12T21:11:21.300Z,48.35
2022-10-12T21:13:49.298Z,48.16
2022-10-12T21:16:18.022Z,48.06
2022-10-12T21:18:45.924Z,48.38
2022-10-12T21:21:15.329Z,48.08
2022-10-12T21:23:44.929Z,48.00
2022-10-12T21:26:15.349Z,48.27
2022-10-12T21:28:43.376Z,48.27
2022-10-12T21:31:12.468Z,48.09
2022-10-12T21:33:40.525Z,48.10
2022-10-12T21:36:10.416Z,48.26
2022-10-12T21:38:38.354Z,47.94
2022-10-12T21:41:08.653Z,48.22
2022-10-12T21:43:36.652Z,48.19
2022-10-12T21:46:06.024Z,48.01
2022-10-12T21:48:34.298Z,48.03
2022-10-12T21:51:03.046Z,47.84
2022-10-12T21:53:33.308Z,48.07
2022-10-12T21:56:01.989Z,48.05
2022-10-12T21:58:31.353Z,48.23
2022-10-12T22:01:06.841Z,47.98
2022-10-12T22:03:34.819Z,47.72
2022-10-12T22:06:03.533Z,47.97
2022-10-12T22:08:31.506Z,47.82
2022-10-12T22:11:05.129Z,47.83
2022-10-12T22:13:34.511Z,47.94
2022-10-12T22:16:03.262Z,47.77
2022-10-12T22:18:31.226Z,47.83
2022-10-12T22:20:59.333Z,47.77
2022-10-12T22:23:27.321Z,47.93
2022-10-12T22:25:55.421Z,47.83
2022-10-12T22:28:23.404Z,48.04
2022-10-12T22:30:52.823Z,47.65
2022-10-12T22:33:20.798Z,47.67
2022-10-12T22:35:55.477Z,47.84
2022-10-12T22:38:23.401Z,48.10
2022-10-12T22:40:57.555Z,47.88
2022-10-12T22:43:25.670Z,47.85
2022-10-12T22:45:55.096Z,47.76
2022-10-12T22:48:23.062Z,48.00
2022-10-12T22:50:51.324Z,47.98
2022-10-12T22:53:20.349Z,47.95
2022-10-12T22:55:48.608Z,48.01
2022-10-12T22:58:16.640Z,47.88
2022-10-12T23:00:45.018Z,47.89
2022-10-12T23:03:14.405Z,47.89
2022-10-12T23:05:49.076Z,48.07
2022-10-12T23:08:17.025Z,47.89
2022-10-12T23:10:44.963Z,48.12
2022-10-12T23:13:12.933Z,47.87
2022-10-12T23:15:40.917Z,47.90
2022-10-12T23:18:08.932Z,47.82
2022-10-12T23:20:39.874Z,47.68
2022-10-12T23:23:07.809Z,47.78
2022-10-12T23:25:35.767Z,47.67
2022-10-12T23:28:03.773Z,47.97
2022-10-12T23:30:31.724Z,47.80
2022-10-12T23:32:59.619Z,48.04
2022-10-12T23:35:27.561Z,48.06
2022-10-12T23:37:56.968Z,47.91
2022-10-12T23:40:24.893Z,47.89
2022-10-12T23:42:52.823Z,47.94
2022-10-12T23:45:20.778Z,47.85
2022-10-12T23:47:48.774Z,48.00
2022-10-12T23:50:16.897Z,48.14
2022-10-12T23:52:44.789Z,47.77
2022-10-12T23:55:14.157Z,47.73
2022-10-12T23:57:47.033Z,47.71
